Home en_GB de_DE fr_FR  

21.01.18 04:20 UTC   Mobilseite
Preise
FAQ

 
TopMeteo
Benutzername Passwort  



Aktuelle Wetterbeobachtungen entlang der Route stehen nur registrierten Benutzern mit gültigem Abonnement zur Verfügung.

Wir zeigen Ihnen eine Auswahl an beliebigen Orten an. Zum Verständnis von METAR-Wettermeldungen siehe Wikipedia.


EDAH Heringsdorf TAF/S

14:50Z
201607Z 2016/2024 CNL
BECMG 2015/2018 12006KT ; TEMPO 2015/2024 6000 BKN020
VRB03KT 4600 BR OVC016 01/00 Q1004
EDDG Münster Osnabrück Flughafen TAF/L


03:50Z
201700Z 2018/2118 11005KT 9999 BKN020
TEMPO 2018/2021 3500 RA ; BECMG 2018/2021 VRB03KT SCT008 BKN012 ; TEMPO 2021/2102 2500 RASN BKN007
BECMG 2103/2106 25006KT SCT020
28004KT 6000 FEW004 SCT007 01/00 Q1007 NOSIG
KBUF Greater Buffalo International TAF/L




03:54Z
AMD 210304Z 2103/2124 24010KT P6SM SCT250
FM210400 24009KT P6SM BKN250
FM210600 24009KT P6SM BKN020
FM211200 23007KT P6SM OVC007
FM211900 VRB03KT P6SM OVC007
21008KT 10SM FEW250 00/M02 A3003 RMK AO2 SLP179 T00001022
KPIT Greater Pittsburgh International TAF/L




03:51Z
AMD 210234Z 2103/2206 24006KT P6SM FEW250
FM210400 23006KT P6SM BKN025
FM210700 23005KT 5SM BR OVC015
FM211000 22005KT 3SM -DZ OVC008
FM211500 21005KT P6SM VCSH OVC010
26004KT 10SM FEW025 04/M02 A3010 RMK AO2 SLP207 T00391017
KAXH Houston Southwest 03:55Z AUTO 16005KT 7SM OVC003 18/17 A3005 RMK AO2 T01750173
LIMC Milano/Malpensa TAF/L

03:50Z
201700Z 2018/2124 35007KT 9999 BKN090
TEMPO 2021/2103 4000 RASN SCT010 BKN060 ; TEMPO 2109/2115 35015G25KT
36003KT CAVOK 01/00 Q1004 NOSIG
LOWK Klagenfurt-Flughafen TAF/L


03:50Z
AMD 202137Z 2021/2118 VRB02KT 9999 SCT020 BKN200 TX05/2113Z TNM01/2108Z
TEMPO 2021/2105 2000 SHSN SCT008 BKN012 PROB30 ; TEMPO 2100/2107 1200 FZBCFG SCT003 BKN008
TEMPO 2109/2117 36015G30KT
AUTO VRB03KT 7000 FEW080 BKN110 M02/M03 Q1000
FYWB Walvis Bay TAF/L

02:00Z
202200Z 2100/2206 04005KT 9999 OVC010
BECMG 2107/2109 33004KT 9999 BKN015 ; BECMG 2110/2112 25013KT CAVOK
AUTO 04002KT //// // ////// 16/14 Q1011
FBFT Francistown TAF/S
04:00Z
210000Z 2103/2112 05007KT CAVOK
07002KT CAVOK 18/07 Q1016

Data source: ftp://tgftp.nws.noaa.gov/SL.us008001
"Data is provided as a public service by NOAA's National Weather Service (NWS) and is considered public information and may be distributed or copied."
 
 
Nutzungsbedingungen
Impressum
Wir über uns
Modelllauf: 00 UTC - Vorhersage: Mo 22.01.18 05:00